sensor_id;sensor_type;location;lat;lon;timestamp;P1;durP1;ratioP1;P2;durP2;ratioP2
25503;SDS011;13410;52.114;5.718;2023-06-05T00:00:00;8.57;;;4.93;;
25503;SDS011;13410;52.114;5.718;2023-06-05T00:02:25;7.57;;;5.32;;
25503;SDS011;13410;52.114;5.718;2023-06-05T00:04:53;11.80;;;5.38;;
25503;SDS011;13410;52.114;5.718;2023-06-05T00:07:18;10.93;;;5.47;;
25503;SDS011;13410;52.114;5.718;2023-06-05T00:09:44;7.72;;;5.18;;
25503;SDS011;13410;52.114;5.718;2023-06-05T00:12:10;10.55;;;5.05;;
25503;SDS011;13410;52.114;5.718;2023-06-05T00:14:36;9.73;;;5.80;;
25503;SDS011;13410;52.114;5.718;2023-06-05T00:17:02;10.13;;;5.60;;
25503;SDS011;13410;52.114;5.718;2023-06-05T00:19:28;9.75;;;5.40;;
25503;SDS011;13410;52.114;5.718;2023-06-05T00:21:54;9.70;;;5.40;;
25503;SDS011;13410;52.114;5.718;2023-06-05T00:24:20;9.85;;;5.22;;
25503;SDS011;13410;52.114;5.718;2023-06-05T00:26:47;10.43;;;5.32;;
25503;SDS011;13410;52.114;5.718;2023-06-05T00:29:12;9.30;;;5.60;;
25503;SDS011;13410;52.114;5.718;2023-06-05T00:31:38;9.32;;;5.90;;
25503;SDS011;13410;52.114;5.718;2023-06-05T00:34:04;9.85;;;5.53;;
25503;SDS011;13410;52.114;5.718;2023-06-05T00:36:29;9.05;;;5.63;;
25503;SDS011;13410;52.114;5.718;2023-06-05T00:38:57;12.05;;;5.97;;
25503;SDS011;13410;52.114;5.718;2023-06-05T00:41:23;9.50;;;5.82;;
25503;SDS011;13410;52.114;5.718;2023-06-05T00:43:48;9.18;;;5.55;;
25503;SDS011;13410;52.114;5.718;2023-06-05T00:46:14;8.48;;;5.60;;
25503;SDS011;13410;52.114;5.718;2023-06-05T00:48:40;10.88;;;5.88;;
25503;SDS011;13410;52.114;5.718;2023-06-05T00:51:07;9.48;;;6.03;;
25503;SDS011;13410;52.114;5.718;2023-06-05T00:53:35;10.13;;;6.38;;
25503;SDS011;13410;52.114;5.718;2023-06-05T00:56:02;10.23;;;5.80;;
25503;SDS011;13410;52.114;5.718;2023-06-05T00:58:28;9.27;;;5.82;;
25503;SDS011;13410;52.114;5.718;2023-06-05T01:00:56;9.45;;;6.05;;
25503;SDS011;13410;52.114;5.718;2023-06-05T01:03:22;10.60;;;5.85;;
25503;SDS011;13410;52.114;5.718;2023-06-05T01:05:50;11.30;;;6.32;;
25503;SDS011;13410;52.114;5.718;2023-06-05T01:08:16;9.95;;;6.07;;
25503;SDS011;13410;52.114;5.718;2023-06-05T01:10:50;9.07;;;5.93;;
25503;SDS011;13410;52.114;5.718;2023-06-05T01:13:24;9.45;;;5.90;;
25503;SDS011;13410;52.114;5.718;2023-06-05T01:15:53;10.68;;;7.00;;
25503;SDS011;13410;52.114;5.718;2023-06-05T01:18:21;9.30;;;6.45;;
25503;SDS011;13410;52.114;5.718;2023-06-05T01:20:48;9.88;;;6.47;;
25503;SDS011;13410;52.114;5.718;2023-06-05T01:23:13;11.35;;;6.80;;
25503;SDS011;13410;52.114;5.718;2023-06-05T01:25:39;10.18;;;6.38;;
25503;SDS011;13410;52.114;5.718;2023-06-05T01:33:29;10.55;;;6.35;;
25503;SDS011;13410;52.114;5.718;2023-06-05T01:36:06;12.38;;;6.60;;
25503;SDS011;13410;52.114;5.718;2023-06-05T01:38:35;10.52;;;6.45;;
25503;SDS011;13410;52.114;5.718;2023-06-05T01:41:01;9.85;;;6.72;;
25503;SDS011;13410;52.114;5.718;2023-06-05T01:43:29;11.93;;;6.88;;
25503;SDS011;13410;52.114;5.718;2023-06-05T01:45:56;11.35;;;7.13;;
25503;SDS011;13410;52.114;5.718;2023-06-05T01:48:27;11.10;;;7.15;;
25503;SDS011;13410;52.114;5.718;2023-06-05T01:51:02;11.60;;;6.80;;
25503;SDS011;13410;52.114;5.718;2023-06-05T01:53:28;9.65;;;6.70;;
25503;SDS011;13410;52.114;5.718;2023-06-05T01:55:54;11.35;;;6.60;;
25503;SDS011;13410;52.114;5.718;2023-06-05T01:58:24;13.45;;;6.95;;
25503;SDS011;13410;52.114;5.718;2023-06-05T02:00:50;13.15;;;6.88;;
25503;SDS011;13410;52.114;5.718;2023-06-05T02:03:17;14.40;;;7.13;;
25503;SDS011;13410;52.114;5.718;2023-06-05T02:05:43;10.95;;;7.43;;
25503;SDS011;13410;52.114;5.718;2023-06-05T02:08:09;12.75;;;7.25;;
25503;SDS011;13410;52.114;5.718;2023-06-05T02:10:35;15.45;;;7.68;;
25503;SDS011;13410;52.114;5.718;2023-06-05T02:13:02;12.18;;;7.28;;
25503;SDS011;13410;52.114;5.718;2023-06-05T02:15:28;12.50;;;7.18;;
25503;SDS011;13410;52.114;5.718;2023-06-05T02:17:57;13.63;;;7.72;;
25503;SDS011;13410;52.114;5.718;2023-06-05T02:20:23;11.65;;;7.50;;
25503;SDS011;13410;52.114;5.718;2023-06-05T02:22:50;11.38;;;7.78;;
25503;SDS011;13410;52.114;5.718;2023-06-05T02:25:17;11.50;;;7.60;;
25503;SDS011;13410;52.114;5.718;2023-06-05T02:27:43;13.93;;;8.13;;
25503;SDS011;13410;52.114;5.718;2023-06-05T02:30:09;14.90;;;7.82;;
25503;SDS011;13410;52.114;5.718;2023-06-05T02:32:36;13.07;;;7.90;;
25503;SDS011;13410;52.114;5.718;2023-06-05T02:35:07;12.32;;;7.90;;
25503;SDS011;13410;52.114;5.718;2023-06-05T02:37:33;13.07;;;7.65;;
25503;SDS011;13410;52.114;5.718;2023-06-05T02:40:08;14.05;;;7.40;;
25503;SDS011;13410;52.114;5.718;2023-06-05T02:42:34;11.70;;;7.60;;
25503;SDS011;13410;52.114;5.718;2023-06-05T02:45:16;12.80;;;7.72;;
25503;SDS011;13410;52.114;5.718;2023-06-05T02:50:17;12.48;;;8.10;;
25503;SDS011;13410;52.114;5.718;2023-06-05T02:52:43;13.45;;;8.73;;
25503;SDS011;13410;52.114;5.718;2023-06-05T02:55:14;14.15;;;8.18;;
25503;SDS011;13410;52.114;5.718;2023-06-05T02:57:57;15.90;;;8.13;;
25503;SDS011;13410;52.114;5.718;2023-06-05T03:00:23;14.70;;;7.82;;
25503;SDS011;13410;52.114;5.718;2023-06-05T03:02:50;14.75;;;8.45;;
25503;SDS011;13410;52.114;5.718;2023-06-05T03:05:17;16.15;;;8.00;;
25503;SDS011;13410;52.114;5.718;2023-06-05T03:07:49;14.35;;;9.07;;
25503;SDS011;13410;52.114;5.718;2023-06-05T03:10:18;14.88;;;8.38;;
25503;SDS011;13410;52.114;5.718;2023-06-05T03:12:47;15.23;;;9.23;;
25503;SDS011;13410;52.114;5.718;2023-06-05T03:15:12;18.83;;;12.50;;
25503;SDS011;13410;52.114;5.718;2023-06-05T03:17:41;14.40;;;8.88;;
25503;SDS011;13410;52.114;5.718;2023-06-05T03:20:07;15.20;;;8.50;;
25503;SDS011;13410;52.114;5.718;2023-06-05T03:22:34;14.23;;;8.63;;
25503;SDS011;13410;52.114;5.718;2023-06-05T03:25:00;15.32;;;9.15;;
25503;SDS011;13410;52.114;5.718;2023-06-05T03:27:26;16.88;;;8.43;;
25503;SDS011;13410;52.114;5.718;2023-06-05T03:29:51;16.73;;;9.13;;
25503;SDS011;13410;52.114;5.718;2023-06-05T03:32:17;15.43;;;9.43;;
25503;SDS011;13410;52.114;5.718;2023-06-05T03:34:43;19.77;;;9.65;;
25503;SDS011;13410;52.114;5.718;2023-06-05T03:37:13;14.57;;;8.77;;
25503;SDS011;13410;52.114;5.718;2023-06-05T03:39:39;16.83;;;9.10;;
25503;SDS011;13410;52.114;5.718;2023-06-05T03:42:05;15.90;;;9.43;;
25503;SDS011;13410;52.114;5.718;2023-06-05T03:44:34;16.00;;;9.25;;
25503;SDS011;13410;52.114;5.718;2023-06-05T03:46:59;16.90;;;9.75;;
25503;SDS011;13410;52.114;5.718;2023-06-05T03:49:25;14.73;;;8.68;;
25503;SDS011;13410;52.114;5.718;2023-06-05T03:51:53;13.68;;;8.32;;
25503;SDS011;13410;52.114;5.718;2023-06-05T03:54:25;14.15;;;9.02;;
25503;SDS011;13410;52.114;5.718;2023-06-05T03:56:57;16.10;;;9.18;;
25503;SDS011;13410;52.114;5.718;2023-06-05T03:59:25;16.77;;;8.75;;
25503;SDS011;13410;52.114;5.718;2023-06-05T04:01:53;15.30;;;9.20;;
25503;SDS011;13410;52.114;5.718;2023-06-05T04:04:19;20.55;;;8.35;;
25503;SDS011;13410;52.114;5.718;2023-06-05T04:06:45;14.93;;;8.10;;
25503;SDS011;13410;52.114;5.718;2023-06-05T04:09:11;12.80;;;7.20;;
25503;SDS011;13410;52.114;5.718;2023-06-05T04:11:41;12.05;;;7.32;;
25503;SDS011;13410;52.114;5.718;2023-06-05T04:14:08;13.02;;;6.97;;
25503;SDS011;13410;52.114;5.718;2023-06-05T04:16:37;12.45;;;7.28;;
25503;SDS011;13410;52.114;5.718;2023-06-05T04:19:04;16.25;;;7.22;;
25503;SDS011;13410;52.114;5.718;2023-06-05T04:21:31;11.65;;;6.68;;
25503;SDS011;13410;52.114;5.718;2023-06-05T04:23:59;13.32;;;6.85;;
25503;SDS011;13410;52.114;5.718;2023-06-05T04:26:25;12.80;;;7.10;;
25503;SDS011;13410;52.114;5.718;2023-06-05T04:28:51;11.23;;;6.53;;
25503;SDS011;13410;52.114;5.718;2023-06-05T04:31:17;16.73;;;6.60;;
25503;SDS011;13410;52.114;5.718;2023-06-05T04:33:43;11.05;;;6.72;;
25503;SDS011;13410;52.114;5.718;2023-06-05T04:36:09;8.93;;;6.10;;
25503;SDS011;13410;52.114;5.718;2023-06-05T04:38:36;9.90;;;6.20;;
25503;SDS011;13410;52.114;5.718;2023-06-05T04:41:02;10.88;;;5.97;;
25503;SDS011;13410;52.114;5.718;2023-06-05T04:43:28;12.52;;;6.18;;
25503;SDS011;13410;52.114;5.718;2023-06-05T04:45:53;9.15;;;5.97;;
25503;SDS011;13410;52.114;5.718;2023-06-05T04:48:19;10.45;;;5.82;;
25503;SDS011;13410;52.114;5.718;2023-06-05T04:50:45;8.88;;;5.30;;
25503;SDS011;13410;52.114;5.718;2023-06-05T04:53:10;8.88;;;5.40;;
25503;SDS011;13410;52.114;5.718;2023-06-05T04:55:36;9.90;;;5.20;;
25503;SDS011;13410;52.114;5.718;2023-06-05T04:58:02;9.15;;;5.15;;
25503;SDS011;13410;52.114;5.718;2023-06-05T05:00:29;9.38;;;5.78;;
25503;SDS011;13410;52.114;5.718;2023-06-05T05:02:54;7.53;;;4.97;;
25503;SDS011;13410;52.114;5.718;2023-06-05T05:05:20;9.48;;;5.50;;
25503;SDS011;13410;52.114;5.718;2023-06-05T05:07:46;9.93;;;5.63;;
25503;SDS011;13410;52.114;5.718;2023-06-05T05:10:11;8.50;;;5.38;;
25503;SDS011;13410;52.114;5.718;2023-06-05T05:12:39;7.20;;;5.18;;
25503;SDS011;13410;52.114;5.718;2023-06-05T05:15:05;10.57;;;5.30;;
25503;SDS011;13410;52.114;5.718;2023-06-05T05:17:31;7.60;;;4.75;;
25503;SDS011;13410;52.114;5.718;2023-06-05T05:19:56;7.68;;;5.20;;
25503;SDS011;13410;52.114;5.718;2023-06-05T05:22:23;8.88;;;5.15;;
25503;SDS011;13410;52.114;5.718;2023-06-05T05:24:49;8.70;;;4.88;;
25503;SDS011;13410;52.114;5.718;2023-06-05T05:27:14;8.07;;;4.93;;
25503;SDS011;13410;52.114;5.718;2023-06-05T05:29:40;10.23;;;4.88;;
25503;SDS011;13410;52.114;5.718;2023-06-05T05:32:06;8.88;;;4.80;;
25503;SDS011;13410;52.114;5.718;2023-06-05T05:34:32;10.88;;;5.00;;
25503;SDS011;13410;52.114;5.718;2023-06-05T05:36:59;9.45;;;5.50;;
25503;SDS011;13410;52.114;5.718;2023-06-05T05:39:24;7.18;;;4.80;;
25503;SDS011;13410;52.114;5.718;2023-06-05T05:41:56;8.05;;;5.18;;
25503;SDS011;13410;52.114;5.718;2023-06-05T05:44:25;9.65;;;5.20;;
25503;SDS011;13410;52.114;5.718;2023-06-05T05:46:51;7.68;;;5.45;;
25503;SDS011;13410;52.114;5.718;2023-06-05T05:49:16;11.90;;;5.30;;
25503;SDS011;13410;52.114;5.718;2023-06-05T05:51:42;8.60;;;4.93;;
25503;SDS011;13410;52.114;5.718;2023-06-05T05:54:08;8.73;;;5.38;;
25503;SDS011;13410;52.114;5.718;2023-06-05T05:56:33;9.05;;;4.80;;
25503;SDS011;13410;52.114;5.718;2023-06-05T05:59:02;8.20;;;4.80;;
25503;SDS011;13410;52.114;5.718;2023-06-05T06:01:28;9.52;;;5.07;;
25503;SDS011;13410;52.114;5.718;2023-06-05T06:03:54;7.18;;;4.95;;
25503;SDS011;13410;52.114;5.718;2023-06-05T06:06:19;8.82;;;4.70;;
25503;SDS011;13410;52.114;5.718;2023-06-05T06:08:45;9.93;;;5.10;;
25503;SDS011;13410;52.114;5.718;2023-06-05T06:11:11;7.88;;;4.82;;
25503;SDS011;13410;52.114;5.718;2023-06-05T06:13:38;8.00;;;4.88;;
25503;SDS011;13410;52.114;5.718;2023-06-05T06:16:03;7.18;;;4.47;;
25503;SDS011;13410;52.114;5.718;2023-06-05T06:18:29;8.05;;;4.70;;
25503;SDS011;13410;52.114;5.718;2023-06-05T06:20:55;6.18;;;4.57;;
25503;SDS011;13410;52.114;5.718;2023-06-05T06:23:21;7.05;;;4.50;;
25503;SDS011;13410;52.114;5.718;2023-06-05T06:25:46;6.75;;;4.40;;
25503;SDS011;13410;52.114;5.718;2023-06-05T06:28:12;7.93;;;4.60;;
25503;SDS011;13410;52.114;5.718;2023-06-05T06:30:38;9.23;;;4.90;;
25503;SDS011;13410;52.114;5.718;2023-06-05T06:33:03;7.22;;;5.07;;
25503;SDS011;13410;52.114;5.718;2023-06-05T06:35:29;7.57;;;4.20;;
25503;SDS011;13410;52.114;5.718;2023-06-05T06:38:00;7.40;;;4.65;;
25503;SDS011;13410;52.114;5.718;2023-06-05T06:40:25;10.75;;;4.60;;
25503;SDS011;13410;52.114;5.718;2023-06-05T06:42:53;7.97;;;4.22;;
25503;SDS011;13410;52.114;5.718;2023-06-05T06:45:20;5.85;;;4.20;;
25503;SDS011;13410;52.114;5.718;2023-06-05T06:47:46;8.13;;;4.30;;
25503;SDS011;13410;52.114;5.718;2023-06-05T06:50:12;8.00;;;4.60;;
25503;SDS011;13410;52.114;5.718;2023-06-05T06:52:38;7.78;;;4.43;;
25503;SDS011;13410;52.114;5.718;2023-06-05T06:55:04;6.68;;;4.00;;
25503;SDS011;13410;52.114;5.718;2023-06-05T06:57:31;10.15;;;4.38;;
25503;SDS011;13410;52.114;5.718;2023-06-05T06:59:57;6.65;;;4.00;;
25503;SDS011;13410;52.114;5.718;2023-06-05T07:02:23;7.55;;;4.13;;
25503;SDS011;13410;52.114;5.718;2023-06-05T07:04:50;9.35;;;4.45;;
25503;SDS011;13410;52.114;5.718;2023-06-05T07:07:16;7.20;;;4.35;;
25503;SDS011;13410;52.114;5.718;2023-06-05T07:09:44;7.28;;;3.92;;
25503;SDS011;13410;52.114;5.718;2023-06-05T07:12:14;7.72;;;4.13;;
25503;SDS011;13410;52.114;5.718;2023-06-05T07:17:07;7.07;;;3.88;;
25503;SDS011;13410;52.114;5.718;2023-06-05T07:19:33;6.47;;;4.00;;
25503;SDS011;13410;52.114;5.718;2023-06-05T07:22:03;6.22;;;3.90;;
25503;SDS011;13410;52.114;5.718;2023-06-05T07:24:29;7.35;;;4.20;;
25503;SDS011;13410;52.114;5.718;2023-06-05T07:26:57;6.80;;;3.80;;
25503;SDS011;13410;52.114;5.718;2023-06-05T07:29:24;5.47;;;3.40;;
25503;SDS011;13410;52.114;5.718;2023-06-05T07:31:53;4.90;;;3.53;;
25503;SDS011;13410;52.114;5.718;2023-06-05T07:34:20;4.82;;;3.25;;
25503;SDS011;13410;52.114;5.718;2023-06-05T07:36:47;5.80;;;3.58;;
25503;SDS011;13410;52.114;5.718;2023-06-05T07:39:14;6.85;;;3.17;;
25503;SDS011;13410;52.114;5.718;2023-06-05T07:41:40;7.85;;;3.65;;
25503;SDS011;13410;52.114;5.718;2023-06-05T07:44:09;7.85;;;3.50;;
25503;SDS011;13410;52.114;5.718;2023-06-05T07:46:36;5.75;;;3.50;;
25503;SDS011;13410;52.114;5.718;2023-06-05T07:49:04;5.57;;;3.50;;
25503;SDS011;13410;52.114;5.718;2023-06-05T07:51:30;7.13;;;3.30;;
25503;SDS011;13410;52.114;5.718;2023-06-05T07:54:00;6.72;;;2.85;;
25503;SDS011;13410;52.114;5.718;2023-06-05T07:56:28;6.32;;;3.30;;
25503;SDS011;13410;52.114;5.718;2023-06-05T07:58:56;6.05;;;3.45;;
25503;SDS011;13410;52.114;5.718;2023-06-05T08:04:17;4.90;;;3.47;;
25503;SDS011;13410;52.114;5.718;2023-06-05T08:06:44;7.40;;;3.30;;
25503;SDS011;13410;52.114;5.718;2023-06-05T08:09:10;4.40;;;3.35;;
25503;SDS011;13410;52.114;5.718;2023-06-05T08:11:37;7.13;;;3.65;;
25503;SDS011;13410;52.114;5.718;2023-06-05T08:14:04;6.30;;;3.75;;
25503;SDS011;13410;52.114;5.718;2023-06-05T08:16:31;7.53;;;4.10;;
25503;SDS011;13410;52.114;5.718;2023-06-05T08:18:57;6.03;;;3.75;;
25503;SDS011;13410;52.114;5.718;2023-06-05T08:21:23;6.40;;;3.83;;
25503;SDS011;13410;52.114;5.718;2023-06-05T08:23:48;6.85;;;4.05;;
25503;SDS011;13410;52.114;5.718;2023-06-05T08:26:14;6.88;;;3.80;;
25503;SDS011;13410;52.114;5.718;2023-06-05T08:28:40;6.38;;;3.85;;
25503;SDS011;13410;52.114;5.718;2023-06-05T08:31:07;5.28;;;3.63;;
25503;SDS011;13410;52.114;5.718;2023-06-05T08:33:36;8.55;;;4.10;;
25503;SDS011;13410;52.114;5.718;2023-06-05T08:36:02;6.95;;;4.10;;
25503;SDS011;13410;52.114;5.718;2023-06-05T08:38:29;7.55;;;3.70;;
25503;SDS011;13410;52.114;5.718;2023-06-05T08:40:55;4.88;;;3.30;;
25503;SDS011;13410;52.114;5.718;2023-06-05T08:43:35;5.25;;;3.35;;
25503;SDS011;13410;52.114;5.718;2023-06-05T08:46:06;4.88;;;3.75;;
25503;SDS011;13410;52.114;5.718;2023-06-05T08:48:41;7.25;;;3.45;;
25503;SDS011;13410;52.114;5.718;2023-06-05T08:51:09;5.93;;;3.55;;
25503;SDS011;13410;52.114;5.718;2023-06-05T08:53:41;8.15;;;3.53;;
25503;SDS011;13410;52.114;5.718;2023-06-05T08:56:09;7.13;;;3.70;;
25503;SDS011;13410;52.114;5.718;2023-06-05T08:58:36;8.07;;;3.53;;
25503;SDS011;13410;52.114;5.718;2023-06-05T09:01:02;6.28;;;3.30;;
25503;SDS011;13410;52.114;5.718;2023-06-05T09:03:28;8.27;;;3.70;;
25503;SDS011;13410;52.114;5.718;2023-06-05T09:05:53;6.50;;;3.50;;
25503;SDS011;13410;52.114;5.718;2023-06-05T09:08:27;5.50;;;3.80;;
25503;SDS011;13410;52.114;5.718;2023-06-05T09:13:46;4.80;;;3.20;;
25503;SDS011;13410;52.114;5.718;2023-06-05T09:16:13;10.00;;;3.95;;
25503;SDS011;13410;52.114;5.718;2023-06-05T09:18:55;5.55;;;3.60;;
25503;SDS011;13410;52.114;5.718;2023-06-05T09:21:22;6.32;;;4.03;;
25503;SDS011;13410;52.114;5.718;2023-06-05T09:23:55;6.68;;;3.47;;
25503;SDS011;13410;52.114;5.718;2023-06-05T09:26:45;4.47;;;3.55;;
25503;SDS011;13410;52.114;5.718;2023-06-05T09:29:19;7.60;;;3.67;;
25503;SDS011;13410;52.114;5.718;2023-06-05T09:31:48;4.95;;;3.72;;
25503;SDS011;13410;52.114;5.718;2023-06-05T09:34:25;12.35;;;4.80;;
25503;SDS011;13410;52.114;5.718;2023-06-05T09:36:52;7.20;;;4.80;;
25503;SDS011;13410;52.114;5.718;2023-06-05T09:39:20;6.65;;;4.65;;
25503;SDS011;13410;52.114;5.718;2023-06-05T09:41:47;4.22;;;3.30;;
25503;SDS011;13410;52.114;5.718;2023-06-05T09:44:15;4.53;;;3.72;;
25503;SDS011;13410;52.114;5.718;2023-06-05T09:52:06;5.85;;;4.38;;
25503;SDS011;13410;52.114;5.718;2023-06-05T09:54:33;8.32;;;4.68;;
25503;SDS011;13410;52.114;5.718;2023-06-05T09:57:04;6.15;;;4.50;;
25503;SDS011;13410;52.114;5.718;2023-06-05T09:59:45;6.07;;;4.45;;
25503;SDS011;13410;52.114;5.718;2023-06-05T10:02:10;6.43;;;4.40;;
25503;SDS011;13410;52.114;5.718;2023-06-05T10:04:48;5.07;;;3.88;;
25503;SDS011;13410;52.114;5.718;2023-06-05T10:07:16;6.65;;;4.18;;
25503;SDS011;13410;52.114;5.718;2023-06-05T10:09:44;6.18;;;4.63;;
25503;SDS011;13410;52.114;5.718;2023-06-05T10:12:13;8.00;;;4.18;;
25503;SDS011;13410;52.114;5.718;2023-06-05T10:14:41;7.47;;;4.05;;
25503;SDS011;13410;52.114;5.718;2023-06-05T10:17:07;5.60;;;3.95;;
25503;SDS011;13410;52.114;5.718;2023-06-05T10:19:36;7.53;;;4.10;;
25503;SDS011;13410;52.114;5.718;2023-06-05T10:22:06;5.22;;;4.05;;
25503;SDS011;13410;52.114;5.718;2023-06-05T10:24:36;5.78;;;4.28;;
25503;SDS011;13410;52.114;5.718;2023-06-05T10:40:38;7.70;;;4.40;;
25503;SDS011;13410;52.114;5.718;2023-06-05T10:43:23;5.93;;;4.50;;
25503;SDS011;13410;52.114;5.718;2023-06-05T10:45:52;6.70;;;4.32;;
25503;SDS011;13410;52.114;5.718;2023-06-05T10:48:19;6.95;;;4.47;;
25503;SDS011;13410;52.114;5.718;2023-06-05T10:50:44;5.50;;;4.68;;
25503;SDS011;13410;52.114;5.718;2023-06-05T10:53:41;8.18;;;4.55;;
25503;SDS011;13410;52.114;5.718;2023-06-05T10:59:42;6.50;;;4.30;;
25503;SDS011;13410;52.114;5.718;2023-06-05T11:02:30;7.40;;;4.85;;
25503;SDS011;13410;52.114;5.718;2023-06-05T11:15:15;8.43;;;4.80;;
25503;SDS011;13410;52.114;5.718;2023-06-05T11:20:57;6.75;;;5.20;;
25503;SDS011;13410;52.114;5.718;2023-06-05T11:23:24;6.40;;;4.72;;
25503;SDS011;13410;52.114;5.718;2023-06-05T11:25:55;8.45;;;5.30;;
25503;SDS011;13410;52.114;5.718;2023-06-05T11:28:38;8.15;;;5.18;;
25503;SDS011;13410;52.114;5.718;2023-06-05T11:31:04;8.45;;;5.00;;
25503;SDS011;13410;52.114;5.718;2023-06-05T11:33:30;6.85;;;4.60;;
25503;SDS011;13410;52.114;5.718;2023-06-05T11:35:59;5.95;;;4.78;;
25503;SDS011;13410;52.114;5.718;2023-06-05T11:38:26;5.95;;;4.88;;
25503;SDS011;13410;52.114;5.718;2023-06-05T11:40:52;8.52;;;5.00;;
25503;SDS011;13410;52.114;5.718;2023-06-05T11:43:20;5.50;;;4.70;;
25503;SDS011;13410;52.114;5.718;2023-06-05T11:45:53;6.18;;;4.82;;
25503;SDS011;13410;52.114;5.718;2023-06-05T11:48:20;10.95;;;4.80;;
25503;SDS011;13410;52.114;5.718;2023-06-05T11:53:29;8.40;;;4.50;;
25503;SDS011;13410;52.114;5.718;2023-06-05T11:55:56;5.55;;;4.15;;
25503;SDS011;13410;52.114;5.718;2023-06-05T11:58:28;5.97;;;4.40;;
25503;SDS011;13410;52.114;5.718;2023-06-05T12:01:08;5.13;;;3.95;;
25503;SDS011;13410;52.114;5.718;2023-06-05T12:03:43;7.03;;;4.43;;
25503;SDS011;13410;52.114;5.718;2023-06-05T12:06:13;7.20;;;4.03;;
25503;SDS011;13410;52.114;5.718;2023-06-05T12:08:39;5.70;;;4.13;;
25503;SDS011;13410;52.114;5.718;2023-06-05T12:11:19;6.35;;;4.07;;
25503;SDS011;13410;52.114;5.718;2023-06-05T12:13:56;5.75;;;4.30;;
25503;SDS011;13410;52.114;5.718;2023-06-05T12:16:56;7.25;;;4.03;;
25503;SDS011;13410;52.114;5.718;2023-06-05T12:19:16;5.97;;;3.92;;
25503;SDS011;13410;52.114;5.718;2023-06-05T12:21:46;6.57;;;3.78;;
25503;SDS011;13410;52.114;5.718;2023-06-05T12:24:15;5.68;;;3.78;;
25503;SDS011;13410;52.114;5.718;2023-06-05T12:26:58;7.25;;;3.55;;
25503;SDS011;13410;52.114;5.718;2023-06-05T12:29:25;5.57;;;3.58;;
25503;SDS011;13410;52.114;5.718;2023-06-05T12:31:59;4.40;;;3.40;;
25503;SDS011;13410;52.114;5.718;2023-06-05T12:34:43;6.18;;;3.60;;
25503;SDS011;13410;52.114;5.718;2023-06-05T12:37:11;6.97;;;3.33;;
25503;SDS011;13410;52.114;5.718;2023-06-05T12:39:48;6.80;;;3.50;;
25503;SDS011;13410;52.114;5.718;2023-06-05T12:42:14;6.13;;;3.60;;
25503;SDS011;13410;52.114;5.718;2023-06-05T12:44:40;3.95;;;3.25;;
25503;SDS011;13410;52.114;5.718;2023-06-05T12:47:05;6.10;;;3.38;;
25503;SDS011;13410;52.114;5.718;2023-06-05T12:49:31;6.50;;;3.20;;
25503;SDS011;13410;52.114;5.718;2023-06-05T12:51:57;8.93;;;3.35;;
25503;SDS011;13410;52.114;5.718;2023-06-05T12:54:22;6.07;;;3.15;;
25503;SDS011;13410;52.114;5.718;2023-06-05T12:56:48;5.20;;;3.10;;
25503;SDS011;13410;52.114;5.718;2023-06-05T12:59:14;7.07;;;3.60;;
25503;SDS011;13410;52.114;5.718;2023-06-05T13:01:40;4.35;;;2.80;;
25503;SDS011;13410;52.114;5.718;2023-06-05T13:04:05;6.05;;;3.08;;
25503;SDS011;13410;52.114;5.718;2023-06-05T13:06:31;4.35;;;2.97;;
25503;SDS011;13410;52.114;5.718;2023-06-05T13:08:58;5.57;;;3.42;;
25503;SDS011;13410;52.114;5.718;2023-06-05T13:11:25;6.22;;;2.95;;
25503;SDS011;13410;52.114;5.718;2023-06-05T13:13:50;5.20;;;2.90;;
25503;SDS011;13410;52.114;5.718;2023-06-05T13:16:16;3.83;;;3.08;;
25503;SDS011;13410;52.114;5.718;2023-06-05T13:18:41;6.63;;;3.17;;
25503;SDS011;13410;52.114;5.718;2023-06-05T13:21:07;5.93;;;3.03;;
25503;SDS011;13410;52.114;5.718;2023-06-05T13:23:33;4.03;;;2.92;;
25503;SDS011;13410;52.114;5.718;2023-06-05T13:25:59;13.32;;;3.33;;
25503;SDS011;13410;52.114;5.718;2023-06-05T13:28:25;5.28;;;4.15;;
25503;SDS011;13410;52.114;5.718;2023-06-05T13:30:51;4.65;;;2.85;;
25503;SDS011;13410;52.114;5.718;2023-06-05T13:33:18;5.25;;;2.72;;
25503;SDS011;13410;52.114;5.718;2023-06-05T13:35:44;4.85;;;2.60;;
25503;SDS011;13410;52.114;5.718;2023-06-05T13:38:10;5.07;;;2.70;;
25503;SDS011;13410;52.114;5.718;2023-06-05T13:40:35;5.25;;;3.05;;
25503;SDS011;13410;52.114;5.718;2023-06-05T13:43:01;4.45;;;3.13;;
25503;SDS011;13410;52.114;5.718;2023-06-05T13:45:27;4.28;;;2.70;;
25503;SDS011;13410;52.114;5.718;2023-06-05T13:47:52;7.97;;;2.90;;
25503;SDS011;13410;52.114;5.718;2023-06-05T13:50:18;4.07;;;2.70;;
25503;SDS011;13410;52.114;5.718;2023-06-05T13:52:47;4.53;;;2.50;;
25503;SDS011;13410;52.114;5.718;2023-06-05T13:55:13;6.78;;;2.63;;
25503;SDS011;13410;52.114;5.718;2023-06-05T13:57:40;5.05;;;2.80;;
25503;SDS011;13410;52.114;5.718;2023-06-05T14:00:05;4.80;;;2.55;;
25503;SDS011;13410;52.114;5.718;2023-06-05T14:02:32;4.85;;;2.75;;
25503;SDS011;13410;52.114;5.718;2023-06-05T14:04:58;8.60;;;2.70;;
25503;SDS011;13410;52.114;5.718;2023-06-05T14:07:23;5.00;;;2.65;;
25503;SDS011;13410;52.114;5.718;2023-06-05T14:09:49;6.50;;;3.03;;
25503;SDS011;13410;52.114;5.718;2023-06-05T14:12:15;4.45;;;2.50;;
25503;SDS011;13410;52.114;5.718;2023-06-05T14:14:42;4.43;;;2.50;;
25503;SDS011;13410;52.114;5.718;2023-06-05T14:17:08;4.13;;;2.67;;
25503;SDS011;13410;52.114;5.718;2023-06-05T14:19:34;3.22;;;2.70;;
25503;SDS011;13410;52.114;5.718;2023-06-05T14:21:59;4.55;;;2.42;;
25503;SDS011;13410;52.114;5.718;2023-06-05T14:24:25;5.05;;;2.90;;
25503;SDS011;13410;52.114;5.718;2023-06-05T14:26:52;4.43;;;2.58;;
25503;SDS011;13410;52.114;5.718;2023-06-05T14:29:19;4.82;;;2.25;;
25503;SDS011;13410;52.114;5.718;2023-06-05T14:31:45;4.68;;;2.50;;
25503;SDS011;13410;52.114;5.718;2023-06-05T14:34:11;4.78;;;2.60;;
25503;SDS011;13410;52.114;5.718;2023-06-05T14:36:36;3.50;;;2.25;;
25503;SDS011;13410;52.114;5.718;2023-06-05T14:39:02;6.18;;;2.70;;
25503;SDS011;13410;52.114;5.718;2023-06-05T14:41:29;5.90;;;2.67;;
25503;SDS011;13410;52.114;5.718;2023-06-05T14:43:55;4.93;;;2.67;;
25503;SDS011;13410;52.114;5.718;2023-06-05T14:46:21;3.40;;;2.70;;
25503;SDS011;13410;52.114;5.718;2023-06-05T14:48:46;4.20;;;2.67;;
25503;SDS011;13410;52.114;5.718;2023-06-05T14:51:12;5.20;;;2.83;;
25503;SDS011;13410;52.114;5.718;2023-06-05T14:53:38;6.28;;;2.88;;
25503;SDS011;13410;52.114;5.718;2023-06-05T14:56:04;6.43;;;3.00;;
25503;SDS011;13410;52.114;5.718;2023-06-05T14:58:30;6.13;;;2.92;;
25503;SDS011;13410;52.114;5.718;2023-06-05T15:00:59;7.00;;;3.45;;
25503;SDS011;13410;52.114;5.718;2023-06-05T15:03:25;4.93;;;2.88;;
25503;SDS011;13410;52.114;5.718;2023-06-05T15:05:51;7.47;;;3.33;;
25503;SDS011;13410;52.114;5.718;2023-06-05T15:08:18;8.18;;;3.50;;
25503;SDS011;13410;52.114;5.718;2023-06-05T15:10:44;5.65;;;3.30;;
25503;SDS011;13410;52.114;5.718;2023-06-05T15:13:10;7.53;;;3.42;;
25503;SDS011;13410;52.114;5.718;2023-06-05T15:15:36;5.32;;;3.33;;
25503;SDS011;13410;52.114;5.718;2023-06-05T15:18:02;7.00;;;3.17;;
25503;SDS011;13410;52.114;5.718;2023-06-05T15:20:28;8.27;;;3.67;;
25503;SDS011;13410;52.114;5.718;2023-06-05T15:22:54;5.05;;;3.30;;
25503;SDS011;13410;52.114;5.718;2023-06-05T15:25:20;4.93;;;3.58;;
25503;SDS011;13410;52.114;5.718;2023-06-05T15:27:48;7.78;;;3.60;;
25503;SDS011;13410;52.114;5.718;2023-06-05T15:30:14;6.13;;;3.50;;
25503;SDS011;13410;52.114;5.718;2023-06-05T15:32:40;5.28;;;3.42;;
25503;SDS011;13410;52.114;5.718;2023-06-05T15:35:08;6.97;;;3.70;;
25503;SDS011;13410;52.114;5.718;2023-06-05T15:37:34;4.93;;;3.50;;
25503;SDS011;13410;52.114;5.718;2023-06-05T15:40:02;5.47;;;3.92;;